NCAR-RAP Real-Time Weather Data

Output produced by METARs form (26 May 2022  08:02 UTC)
found at http://weather.rap.ucar.edu/surface/
 
VTBS 260730Z 31007KT 9999 FEW020 SCT035 34/23 Q1004 NOSIG
VTBS 260700Z 30007KT 270V340 9999 SCT020 SCT035 BKN100 34/22 Q1005 NOSIG
VTBS 260630Z 29006KT 250V360 9999 FEW020 SCT035 BKN100 34/22 Q1005 NOSIG
VTBS 260600Z 26008KT 230V310 9999 FEW020 SCT035 BKN100 34/22 Q1006 NOSIG
VTBS 260530Z 24007KT 190V290 9999 FEW020 SCT035 BKN100 33/23 Q1007 NOSIG
VTBS 260500Z 26006KT 200V290 9999 FEW020 SCT035 BKN100 34/23 Q1007 NOSIG
VTBS 260430Z 23008KT 200V260 9999 FEW020 SCT035 BKN100 32/23 Q1008 NOSIG
VTBS 260400Z 22009KT 9999 SCT020 SCT035 BKN100 31/23 Q1008 NOSIG
VTBS 260330Z 22011KT 9999 SCT020 SCT035 BKN100 31/22 Q1008 NOSIG
VTBS 260300Z 23009KT 9999 FEW020 SCT035 31/23 Q1008 NOSIG
VTBS 260230Z 23008KT 190V260 9999 FEW020 SCT035 31/23 Q1008 NOSIG
VTBS 260200Z 23006KT 190V250 9999 FEW020 31/23 Q1008 NOSIG
VTBS 260130Z 21008KT 9999 FEW020 30/23 Q1007 NOSIG
VTBS 260100Z 21006KT 9999 FEW020 30/23 Q1007 NOSIG
VTBS 260030Z 21007KT 9999 FEW020 29/24 Q1007 NOSIG
VTBS 260000Z 21003KT 9999 FEW020 28/24 Q1007 NOSIG
VTBS 252330Z 23002KT 9999 FEW020 27/24 Q1007 NOSIG
VTBS 252300Z 24002KT 9999 FEW020 27/24 Q1007 NOSIG
VTBS 252230Z 23001KT 9999 FEW020 27/24 Q1006 NOSIG
VTBS 252200Z 21002KT 9999 FEW020 27/24 Q1006 NOSIG
VTBS 252130Z 21002KT 9999 FEW020 27/24 Q1006 NOSIG
VTBS 252100Z 00000KT 9999 FEW020 26/24 Q1006 NOSIG
VTBS 252030Z 35002KT 9999 FEW020 SCT100 26/24 Q1006 NOSIG